createdAt,value
2019-04-24T00:01:15.096Z,9.18
2019-04-24T00:06:20.270Z,9.88
2019-04-24T00:08:52.977Z,9.08
2019-04-24T00:11:41.895Z,15.72
2019-04-24T00:16:51.548Z,7.97
2019-04-24T00:22:06.404Z,11.00
2019-04-24T00:24:18.510Z,7.22
2019-04-24T00:26:49.247Z,10.20
2019-04-24T00:29:21.031Z,7.75
2019-04-24T00:31:49.630Z,8.68
2019-04-24T00:34:26.511Z,9.95
2019-04-24T00:56:55.285Z,7.92
2019-04-24T01:02:23.809Z,8.65
2019-04-24T01:09:59.554Z,12.45
2019-04-24T01:12:28.649Z,9.25
2019-04-24T01:15:09.012Z,16.50
2019-04-24T01:17:30.132Z,11.65
2019-04-24T01:25:12.520Z,12.50
2019-04-24T01:27:31.072Z,8.58
2019-04-24T01:30:18.488Z,11.12
2019-04-24T01:32:37.132Z,7.70
2019-04-24T01:34:58.420Z,9.95
2019-04-24T01:40:19.387Z,10.28
2019-04-24T01:43:05.338Z,10.53
2019-04-24T01:48:15.584Z,13.22
2019-04-24T01:50:29.521Z,7.42
2019-04-24T01:53:01.392Z,8.65
2019-04-24T01:55:22.711Z,11.85
2019-04-24T01:58:02.641Z,10.90
2019-04-24T02:00:36.744Z,9.13
2019-04-24T02:02:53.860Z,7.70
2019-04-24T02:08:11.282Z,14.35
2019-04-24T02:15:38.480Z,8.85
2019-04-24T02:20:49.531Z,7.70
2019-04-24T02:23:12.213Z,10.23
2019-04-24T02:39:05.054Z,7.97
2019-04-24T02:46:31.312Z,7.25
2019-04-24T02:51:26.562Z,11.25
2019-04-24T02:54:08.442Z,10.48
2019-04-24T02:59:05.062Z,9.00
2019-04-24T03:01:39.788Z,11.55
2019-04-24T03:04:01.593Z,9.40
2019-04-24T03:06:40.646Z,10.70
2019-04-24T03:14:10.554Z,11.30
2019-04-24T03:29:41.587Z,9.28
2019-04-24T03:32:50.125Z,13.58
2019-04-24T03:45:20.934Z,8.50
2019-04-24T03:47:59.227Z,12.25
2019-04-24T03:51:08.405Z,11.05
2019-04-24T04:00:48.718Z,8.70
2019-04-24T04:03:35.506Z,8.03
2019-04-24T04:05:40.516Z,8.75
2019-04-24T04:08:43.034Z,9.15
2019-04-24T04:16:05.505Z,11.12
2019-04-24T04:18:41.749Z,10.75
2019-04-24T04:28:51.055Z,14.90
2019-04-24T04:34:05.954Z,20.50
2019-04-24T04:36:27.144Z,13.03
2019-04-24T04:44:10.157Z,9.73
2019-04-24T04:46:50.771Z,11.08
2019-04-24T04:49:46.612Z,15.10
2019-04-24T04:51:43.646Z,14.65
2019-04-24T04:55:22.005Z,10.00
2019-04-24T04:56:51.410Z,12.73
2019-04-24T04:59:49.470Z,16.07
2019-04-24T05:17:12.667Z,12.45
2019-04-24T05:22:08.446Z,16.85
2019-04-24T05:24:32.818Z,16.82
2019-04-24T05:27:16.046Z,9.85
2019-04-24T05:35:12.712Z,14.87
2019-04-24T05:37:53.096Z,11.18
2019-04-24T05:40:25.192Z,28.52
2019-04-24T05:43:04.528Z,23.62
2019-04-24T05:53:04.003Z,14.60
2019-04-24T05:55:45.239Z,20.32
2019-04-24T06:01:11.247Z,15.30
2019-04-24T06:03:59.183Z,22.67
2019-04-24T06:06:33.786Z,12.23
2019-04-24T06:08:50.652Z,12.00
2019-04-24T06:11:31.056Z,13.72
2019-04-24T06:16:26.403Z,13.90
2019-04-24T06:21:24.301Z,12.95
2019-04-24T06:24:11.847Z,12.50
2019-04-24T06:26:37.591Z,17.23
2019-04-24T06:32:06.647Z,16.10
2019-04-24T06:34:01.860Z,12.70
2019-04-24T06:36:58.956Z,12.50
2019-04-24T06:39:35.649Z,12.17
2019-04-24T06:47:45.825Z,15.57
2019-04-24T06:49:37.047Z,12.90
2019-04-24T06:52:26.057Z,12.93
2019-04-24T06:54:42.502Z,14.70
2019-04-24T06:57:24.506Z,7.80
2019-04-24T07:02:21.849Z,10.27
2019-04-24T07:10:31.998Z,9.83
2019-04-24T07:15:44.907Z,10.00
2019-04-24T07:18:12.422Z,7.80
2019-04-24T07:20:51.002Z,9.33
2019-04-24T07:23:29.447Z,9.33
2019-04-24T07:28:35.157Z,10.10
2019-04-24T07:33:57.235Z,6.00
2019-04-24T07:36:38.937Z,6.97
2019-04-24T07:38:53.828Z,11.13
2019-04-24T07:41:32.781Z,5.97
2019-04-24T07:54:16.057Z,6.03
2019-04-24T07:59:42.420Z,4.00
2019-04-24T08:02:14.756Z,4.47
2019-04-24T08:04:38.605Z,4.97
2019-04-24T08:10:05.431Z,3.80
2019-04-24T08:15:04.989Z,6.50
2019-04-24T08:17:22.277Z,5.27
2019-04-24T08:22:12.514Z,4.40
2019-04-24T08:25:00.896Z,4.10
2019-04-24T08:27:23.806Z,5.07
2019-04-24T08:34:55.565Z,4.60
2019-04-24T08:37:37.705Z,3.20
2019-04-24T08:40:06.565Z,2.70
2019-04-24T08:43:10.024Z,4.30
2019-04-24T08:51:00.434Z,3.93
2019-04-24T08:55:50.908Z,6.27
2019-04-24T09:00:36.756Z,2.83
2019-04-24T09:05:42.671Z,5.47
2019-04-24T09:08:14.228Z,3.30
2019-04-24T09:10:55.301Z,3.30
2019-04-24T09:15:56.904Z,2.70
2019-04-24T09:18:37.296Z,4.00
2019-04-24T09:20:49.192Z,8.27
2019-04-24T09:28:37.552Z,6.40
2019-04-24T09:31:02.712Z,2.77
2019-04-24T09:33:46.026Z,3.17
2019-04-24T09:36:29.786Z,4.50
2019-04-24T09:41:45.138Z,12.43
2019-04-24T09:43:56.907Z,4.00
2019-04-24T09:46:18.528Z,2.97
2019-04-24T09:54:05.625Z,2.80
2019-04-24T09:59:21.015Z,3.13
2019-04-24T10:04:54.538Z,3.33
2019-04-24T10:09:40.877Z,3.83
2019-04-24T10:14:39.944Z,3.23
2019-04-24T10:22:38.983Z,3.83
2019-04-24T10:25:05.262Z,2.77
2019-04-24T10:27:40.680Z,5.17
2019-04-24T10:29:59.701Z,3.83
2019-04-24T10:32:38.442Z,12.63
2019-04-24T10:35:09.130Z,3.50
2019-04-24T10:40:30.426Z,4.20
2019-04-24T10:42:57.360Z,5.03
2019-04-24T10:45:32.934Z,3.10
2019-04-24T10:50:58.076Z,2.43
2019-04-24T11:01:08.495Z,3.40
2019-04-24T11:03:57.192Z,5.03
2019-04-24T11:06:12.762Z,4.30
2019-04-24T11:11:36.084Z,3.83
2019-04-24T11:14:03.285Z,2.57
2019-04-24T11:19:20.439Z,4.90
2019-04-24T11:21:54.940Z,5.50
2019-04-24T11:24:26.002Z,3.73
2019-04-24T11:26:59.344Z,3.93
2019-04-24T11:29:17.278Z,1.90
2019-04-24T11:32:06.052Z,4.33
2019-04-24T11:37:05.779Z,4.70
2019-04-24T11:40:12.614Z,3.50
2019-04-24T11:42:07.026Z,2.70
2019-04-24T11:44:54.391Z,3.80
2019-04-24T11:47:43.286Z,2.37
2019-04-24T11:50:04.009Z,2.30
2019-04-24T11:55:27.751Z,4.70
2019-04-24T11:58:19.818Z,4.77
2019-04-24T12:00:25.983Z,4.30
2019-04-24T12:03:14.200Z,5.80
2019-04-24T12:08:48.114Z,2.50
2019-04-24T12:13:49.632Z,2.97
2019-04-24T12:18:49.060Z,3.53
2019-04-24T12:21:36.051Z,6.83
2019-04-24T12:23:57.078Z,8.00
2019-04-24T12:26:17.601Z,3.30
2019-04-24T12:28:59.194Z,15.83
2019-04-24T12:31:28.082Z,15.67
2019-04-24T12:33:54.526Z,1.10
2019-04-24T12:36:39.707Z,2.30
2019-04-24T12:39:03.339Z,1.50
2019-04-24T12:41:32.569Z,1.80
2019-04-24T12:44:10.120Z,2.17
2019-04-24T12:49:09.323Z,2.07
2019-04-24T12:51:43.104Z,4.03
2019-04-24T12:54:19.621Z,3.33
2019-04-24T12:59:45.955Z,9.43
2019-04-24T13:05:28.899Z,5.93
2019-04-24T13:08:00.255Z,3.00
2019-04-24T13:10:26.523Z,5.27
2019-04-24T13:12:54.593Z,2.13
2019-04-24T13:15:52.176Z,3.10
2019-04-24T13:18:16.887Z,5.63
2019-04-24T13:20:18.832Z,4.03
2019-04-24T13:22:52.859Z,2.17
2019-04-24T13:25:51.607Z,6.23
2019-04-24T13:28:54.703Z,2.63
2019-04-24T13:36:18.132Z,3.70
2019-04-24T13:38:48.180Z,1.93
2019-04-24T13:41:00.081Z,3.77
2019-04-24T13:48:50.983Z,4.97
2019-04-24T13:51:10.903Z,5.10
2019-04-24T13:53:56.727Z,3.37
2019-04-24T13:56:03.064Z,3.73
2019-04-24T13:58:50.071Z,3.00
2019-04-24T14:04:06.460Z,2.97
2019-04-24T14:16:28.088Z,2.87
2019-04-24T14:24:19.062Z,5.13
2019-04-24T14:26:53.082Z,4.00
2019-04-24T14:29:14.457Z,7.30
2019-04-24T14:31:58.415Z,3.60
2019-04-24T14:34:34.011Z,5.53
2019-04-24T14:36:46.527Z,4.30
2019-04-24T14:44:42.641Z,1.83
2019-04-24T14:47:13.383Z,1.60
2019-04-24T14:49:59.321Z,3.20
2019-04-24T14:54:43.769Z,1.80
2019-04-24T14:57:09.677Z,1.37
2019-04-24T14:59:48.731Z,3.43
2019-04-24T15:04:40.987Z,4.57
2019-04-24T15:07:11.443Z,4.53
2019-04-24T15:09:32.428Z,1.67
2019-04-24T15:12:18.871Z,3.30
2019-04-24T15:19:56.691Z,1.70
2019-04-24T15:22:20.188Z,5.20
2019-04-24T15:24:55.630Z,1.67
2019-04-24T15:27:18.044Z,2.50
2019-04-24T15:29:40.013Z,1.73
2019-04-24T15:34:51.590Z,1.63
2019-04-24T15:37:18.405Z,1.30
2019-04-24T15:39:49.496Z,2.03
2019-04-24T15:44:57.408Z,2.57
2019-04-24T15:47:38.557Z,2.90
2019-04-24T15:49:56.611Z,1.23
2019-04-24T15:51:44.764Z,3.60
2019-04-24T15:54:13.233Z,5.00
2019-04-24T15:56:41.722Z,8.40
2019-04-24T15:59:33.634Z,3.63
2019-04-24T16:02:11.659Z,1.30
2019-04-24T16:04:45.005Z,3.90
2019-04-24T16:06:57.823Z,2.67
2019-04-24T16:09:28.571Z,3.63
2019-04-24T16:11:57.182Z,1.43
2019-04-24T16:14:49.860Z,4.17
2019-04-24T16:22:21.243Z,4.43
2019-04-24T16:24:56.827Z,1.43
2019-04-24T16:27:28.870Z,3.23
2019-04-24T16:29:58.529Z,6.03
2019-04-24T16:34:59.831Z,4.93
2019-04-24T16:37:29.703Z,2.63
2019-04-24T16:40:27.676Z,2.80
2019-04-24T16:48:04.782Z,7.77
2019-04-24T16:50:23.457Z,3.67
2019-04-24T16:52:56.385Z,2.90
2019-04-24T16:55:10.489Z,2.60
2019-04-24T17:00:28.198Z,2.13
2019-04-24T17:02:56.530Z,3.03
2019-04-24T17:05:24.379Z,1.10
2019-04-24T17:07:53.082Z,3.53
2019-04-24T17:12:45.750Z,2.60
2019-04-24T17:15:18.386Z,2.80
2019-04-24T17:17:47.753Z,3.03
2019-04-24T17:20:25.068Z,3.83
2019-04-24T17:23:00.837Z,7.53
2019-04-24T17:27:59.087Z,3.63
2019-04-24T17:33:05.248Z,1.73
2019-04-24T17:37:30.902Z,5.87
2019-04-24T17:40:01.022Z,3.20
2019-04-24T17:42:44.041Z,8.37
2019-04-24T17:45:29.688Z,4.00
2019-04-24T17:48:03.189Z,5.60
2019-04-24T17:50:21.374Z,6.10
2019-04-24T17:55:23.855Z,4.30
2019-04-24T18:00:02.106Z,31.20
2019-04-24T18:02:31.235Z,19.40
2019-04-24T18:04:59.676Z,24.87
2019-04-24T18:07:28.095Z,15.17
2019-04-24T18:09:56.569Z,13.53
2019-04-24T18:12:25.315Z,10.13
2019-04-24T18:14:53.807Z,5.97
2019-04-24T18:17:22.333Z,12.70
2019-04-24T18:19:51.055Z,12.07
2019-04-24T18:22:19.547Z,6.00
2019-04-24T18:24:52.579Z,4.27
2019-04-24T18:27:22.707Z,9.53
2019-04-24T18:29:53.082Z,5.23
2019-04-24T18:32:23.162Z,9.70
2019-04-24T18:34:52.088Z,5.37
2019-04-24T18:37:20.548Z,5.43
2019-04-24T18:39:49.043Z,4.00
2019-04-24T18:42:17.647Z,3.63
2019-04-24T18:44:46.093Z,5.47
2019-04-24T18:47:15.031Z,6.83
2019-04-24T18:49:43.604Z,10.73
2019-04-24T18:52:12.874Z,12.13
2019-04-24T18:54:43.426Z,4.27
2019-04-24T18:57:12.975Z,3.87
2019-04-24T18:59:43.166Z,3.70
2019-04-24T19:02:12.968Z,2.13
2019-04-24T19:04:41.649Z,10.73
2019-04-24T19:07:10.877Z,3.73
2019-04-24T19:09:39.583Z,4.03
2019-04-24T19:12:08.938Z,1.70
2019-04-24T19:14:37.746Z,9.97
2019-04-24T19:17:07.729Z,2.37
2019-04-24T19:19:36.358Z,6.30
2019-04-24T19:22:08.224Z,1.70
2019-04-24T19:24:37.002Z,4.30
2019-04-24T19:27:05.636Z,1.30
2019-04-24T19:29:35.771Z,5.73
2019-04-24T19:32:04.372Z,4.90
2019-04-24T19:34:32.793Z,1.60
2019-04-24T19:37:01.258Z,2.90
2019-04-24T19:39:29.800Z,2.07
2019-04-24T19:41:58.336Z,1.43
2019-04-24T19:44:26.771Z,1.50
2019-04-24T19:46:55.381Z,5.67
2019-04-24T19:49:26.126Z,2.90
2019-04-24T19:51:54.238Z,2.67
2019-04-24T19:54:23.013Z,2.13
2019-04-24T19:56:51.832Z,3.17
2019-04-24T19:59:20.955Z,4.03
2019-04-24T20:01:50.431Z,4.00
2019-04-24T20:04:19.522Z,2.47
2019-04-24T20:06:48.138Z,4.30
2019-04-24T20:09:27.220Z,3.90
2019-04-24T20:11:56.508Z,1.77
2019-04-24T20:14:24.952Z,3.43
2019-04-24T20:16:53.386Z,3.50
2019-04-24T20:19:22.784Z,3.17
2019-04-24T20:21:52.002Z,2.53
2019-04-24T20:24:21.983Z,1.90
2019-04-24T20:26:50.438Z,1.27
2019-04-24T20:29:19.723Z,1.57
2019-04-24T20:31:48.281Z,1.70
2019-04-24T20:34:16.707Z,1.47
2019-04-24T20:36:45.225Z,1.47
2019-04-24T20:39:15.128Z,1.67
2019-04-24T20:41:43.706Z,1.60
2019-04-24T20:44:12.156Z,2.03
2019-04-24T20:46:42.995Z,2.60
2019-04-24T20:49:11.240Z,2.60
2019-04-24T20:51:41.511Z,3.70
2019-04-24T20:54:10.106Z,1.60
2019-04-24T20:56:38.530Z,1.90
2019-04-24T20:59:06.977Z,1.67
2019-04-24T21:01:35.422Z,1.23
2019-04-24T21:04:04.117Z,2.50
2019-04-24T21:06:34.187Z,2.37
2019-04-24T21:09:17.314Z,2.00
2019-04-24T21:11:40.744Z,1.50
2019-04-24T21:14:09.194Z,2.13
2019-04-24T21:16:39.156Z,2.07
2019-04-24T21:19:07.624Z,1.50
2019-04-24T21:21:37.570Z,2.83
2019-04-24T21:24:06.020Z,1.73
2019-04-24T21:26:34.461Z,1.53
2019-04-24T21:29:03.039Z,1.20
2019-04-24T21:31:31.539Z,2.50
2019-04-24T21:33:59.990Z,2.65
2019-04-24T21:36:28.430Z,2.55
2019-04-24T21:38:56.969Z,9.07
2019-04-24T21:41:25.402Z,1.35
2019-04-24T21:43:53.831Z,5.17
2019-04-24T21:46:22.361Z,1.70
2019-04-24T21:48:51.752Z,1.00
2019-04-24T21:51:20.398Z,2.52
2019-04-24T21:53:48.858Z,1.60
2019-04-24T21:56:17.282Z,2.62
2019-04-24T21:58:45.730Z,3.47
2019-04-24T22:01:17.130Z,3.62
2019-04-24T22:03:47.739Z,4.50
2019-04-24T22:06:32.121Z,2.83
2019-04-24T22:09:01.668Z,1.30
2019-04-24T22:11:32.465Z,9.03
2019-04-24T22:14:01.690Z,1.00
2019-04-24T22:16:30.900Z,1.40
2019-04-24T22:18:59.470Z,1.35
2019-04-24T22:21:29.728Z,1.30
2019-04-24T22:24:17.803Z,1.60
2019-04-24T22:26:42.367Z,5.05
2019-04-24T22:29:11.971Z,3.00
2019-04-24T22:31:53.983Z,2.87
2019-04-24T22:34:24.046Z,1.40
2019-04-24T22:36:52.558Z,1.25
2019-04-24T22:39:41.482Z,1.32
2019-04-24T22:42:12.015Z,1.00
2019-04-24T22:44:40.503Z,1.90
2019-04-24T22:47:09.711Z,2.17
2019-04-24T22:49:38.734Z,1.35
2019-04-24T22:52:07.378Z,1.65
2019-04-24T22:54:38.823Z,1.10
2019-04-24T22:57:06.052Z,2.42
2019-04-24T22:59:35.001Z,2.75
2019-04-24T23:02:04.639Z,1.50
2019-04-24T23:04:33.995Z,4.25
2019-04-24T23:07:03.288Z,1.85
2019-04-24T23:09:34.713Z,1.10
2019-04-24T23:12:04.031Z,1.22
2019-04-24T23:14:33.053Z,1.00
2019-04-24T23:17:01.976Z,1.52
2019-04-24T23:19:35.057Z,2.27
2019-04-24T23:22:06.902Z,1.25
2019-04-24T23:24:50.107Z,1.75
2019-04-24T23:27:11.724Z,1.10
2019-04-24T23:29:42.963Z,3.08
2019-04-24T23:32:14.066Z,1.75
2019-04-24T23:34:44.138Z,1.00
2019-04-24T23:37:12.651Z,2.62
2019-04-24T23:39:41.145Z,1.95
2019-04-24T23:42:09.578Z,1.60
2019-04-24T23:44:38.432Z,1.07
2019-04-24T23:47:07.527Z,3.05
2019-04-24T23:49:36.925Z,1.02
2019-04-24T23:52:05.549Z,2.08
2019-04-24T23:54:33.971Z,1.60
2019-04-24T23:57:02.380Z,4.35
2019-04-24T23:59:30.811Z,2.30
